sensor_id;sensor_type;location;lat;lon;timestamp;P1;durP1;ratioP1;P2;durP2;ratioP2
11616;SDS011;5864;52.998;9.068;2023-01-23T00:00:58;8.30;;;4.60;;
11616;SDS011;5864;52.998;9.068;2023-01-23T00:03:28;6.90;;;4.63;;
11616;SDS011;5864;52.998;9.068;2023-01-23T00:05:56;8.63;;;4.80;;
11616;SDS011;5864;52.998;9.068;2023-01-23T00:08:24;5.83;;;4.20;;
11616;SDS011;5864;52.998;9.068;2023-01-23T00:10:51;4.97;;;3.57;;
11616;SDS011;5864;52.998;9.068;2023-01-23T00:13:20;5.07;;;3.97;;
11616;SDS011;5864;52.998;9.068;2023-01-23T00:15:48;5.00;;;3.90;;
11616;SDS011;5864;52.998;9.068;2023-01-23T00:18:15;4.93;;;4.17;;
11616;SDS011;5864;52.998;9.068;2023-01-23T00:20:43;8.73;;;4.90;;
11616;SDS011;5864;52.998;9.068;2023-01-23T00:23:10;5.90;;;4.37;;
11616;SDS011;5864;52.998;9.068;2023-01-23T00:25:39;7.10;;;3.97;;
11616;SDS011;5864;52.998;9.068;2023-01-23T00:28:06;5.97;;;4.20;;
11616;SDS011;5864;52.998;9.068;2023-01-23T00:30:35;5.83;;;4.10;;
11616;SDS011;5864;52.998;9.068;2023-01-23T00:33:02;8.77;;;4.20;;
11616;SDS011;5864;52.998;9.068;2023-01-23T00:35:30;8.50;;;4.73;;
11616;SDS011;5864;52.998;9.068;2023-01-23T00:37:59;9.03;;;4.30;;
11616;SDS011;5864;52.998;9.068;2023-01-23T00:40:27;7.23;;;4.00;;
11616;SDS011;5864;52.998;9.068;2023-01-23T00:42:54;4.97;;;3.83;;
11616;SDS011;5864;52.998;9.068;2023-01-23T00:45:22;5.03;;;4.13;;
11616;SDS011;5864;52.998;9.068;2023-01-23T00:47:51;6.10;;;4.50;;
11616;SDS011;5864;52.998;9.068;2023-01-23T00:50:18;6.60;;;4.03;;
11616;SDS011;5864;52.998;9.068;2023-01-23T00:52:46;7.83;;;4.43;;
11616;SDS011;5864;52.998;9.068;2023-01-23T00:55:13;7.37;;;4.50;;
11616;SDS011;5864;52.998;9.068;2023-01-23T00:57:40;7.87;;;4.43;;
11616;SDS011;5864;52.998;9.068;2023-01-23T01:00:08;6.13;;;3.97;;
11616;SDS011;5864;52.998;9.068;2023-01-23T01:02:37;6.83;;;4.20;;
11616;SDS011;5864;52.998;9.068;2023-01-23T01:05:06;7.07;;;4.40;;
11616;SDS011;5864;52.998;9.068;2023-01-23T01:07:33;6.27;;;4.40;;
11616;SDS011;5864;52.998;9.068;2023-01-23T01:10:01;5.83;;;4.40;;
11616;SDS011;5864;52.998;9.068;2023-01-23T01:12:29;4.90;;;3.87;;
11616;SDS011;5864;52.998;9.068;2023-01-23T01:14:56;6.07;;;3.90;;
11616;SDS011;5864;52.998;9.068;2023-01-23T01:17:24;6.27;;;3.90;;
11616;SDS011;5864;52.998;9.068;2023-01-23T01:19:51;6.93;;;4.40;;
11616;SDS011;5864;52.998;9.068;2023-01-23T01:22:20;4.47;;;3.60;;
11616;SDS011;5864;52.998;9.068;2023-01-23T01:24:47;5.50;;;4.00;;
11616;SDS011;5864;52.998;9.068;2023-01-23T01:27:15;5.03;;;3.70;;
11616;SDS011;5864;52.998;9.068;2023-01-23T01:29:42;5.03;;;4.20;;
11616;SDS011;5864;52.998;9.068;2023-01-23T01:32:11;5.50;;;4.50;;
11616;SDS011;5864;52.998;9.068;2023-01-23T01:34:38;5.23;;;3.73;;
11616;SDS011;5864;52.998;9.068;2023-01-23T01:37:06;5.00;;;4.10;;
11616;SDS011;5864;52.998;9.068;2023-01-23T01:39:35;4.57;;;3.83;;
11616;SDS011;5864;52.998;9.068;2023-01-23T01:42:02;4.27;;;3.73;;
11616;SDS011;5864;52.998;9.068;2023-01-23T01:44:47;4.23;;;3.67;;
11616;SDS011;5864;52.998;9.068;2023-01-23T01:47:18;5.57;;;4.27;;
11616;SDS011;5864;52.998;9.068;2023-01-23T01:49:46;7.03;;;5.03;;
11616;SDS011;5864;52.998;9.068;2023-01-23T01:52:15;6.70;;;4.20;;
11616;SDS011;5864;52.998;9.068;2023-01-23T01:54:46;4.60;;;3.73;;
11616;SDS011;5864;52.998;9.068;2023-01-23T01:57:18;5.40;;;4.20;;
11616;SDS011;5864;52.998;9.068;2023-01-23T01:59:49;5.07;;;3.60;;
11616;SDS011;5864;52.998;9.068;2023-01-23T02:02:21;5.57;;;4.17;;
11616;SDS011;5864;52.998;9.068;2023-01-23T02:04:53;6.83;;;4.03;;
11616;SDS011;5864;52.998;9.068;2023-01-23T02:07:25;5.00;;;3.50;;
11616;SDS011;5864;52.998;9.068;2023-01-23T02:09:59;5.47;;;4.00;;
11616;SDS011;5864;52.998;9.068;2023-01-23T02:12:27;6.37;;;4.47;;
11616;SDS011;5864;52.998;9.068;2023-01-23T02:14:56;4.23;;;3.77;;
11616;SDS011;5864;52.998;9.068;2023-01-23T02:17:24;7.73;;;4.27;;
11616;SDS011;5864;52.998;9.068;2023-01-23T02:19:52;5.83;;;3.77;;
11616;SDS011;5864;52.998;9.068;2023-01-23T02:22:29;4.57;;;3.53;;
11616;SDS011;5864;52.998;9.068;2023-01-23T02:25:09;5.40;;;3.77;;
11616;SDS011;5864;52.998;9.068;2023-01-23T02:27:45;7.00;;;4.00;;
11616;SDS011;5864;52.998;9.068;2023-01-23T02:30:13;4.70;;;3.53;;
11616;SDS011;5864;52.998;9.068;2023-01-23T02:32:40;6.23;;;3.83;;
11616;SDS011;5864;52.998;9.068;2023-01-23T02:35:09;7.63;;;4.03;;
11616;SDS011;5864;52.998;9.068;2023-01-23T02:37:39;5.33;;;4.00;;
11616;SDS011;5864;52.998;9.068;2023-01-23T02:40:11;8.50;;;3.97;;
11616;SDS011;5864;52.998;9.068;2023-01-23T02:42:40;7.40;;;4.57;;
11616;SDS011;5864;52.998;9.068;2023-01-23T02:45:12;6.50;;;3.93;;
11616;SDS011;5864;52.998;9.068;2023-01-23T02:47:39;5.67;;;3.93;;
11616;SDS011;5864;52.998;9.068;2023-01-23T02:50:07;8.13;;;4.70;;
11616;SDS011;5864;52.998;9.068;2023-01-23T02:52:35;6.57;;;4.10;;
11616;SDS011;5864;52.998;9.068;2023-01-23T02:55:03;6.67;;;4.77;;
11616;SDS011;5864;52.998;9.068;2023-01-23T02:57:31;5.47;;;4.40;;
11616;SDS011;5864;52.998;9.068;2023-01-23T02:59:59;6.37;;;4.23;;
11616;SDS011;5864;52.998;9.068;2023-01-23T03:02:48;7.97;;;4.67;;
11616;SDS011;5864;52.998;9.068;2023-01-23T03:05:16;7.50;;;4.37;;
11616;SDS011;5864;52.998;9.068;2023-01-23T03:07:44;5.53;;;3.57;;
11616;SDS011;5864;52.998;9.068;2023-01-23T03:10:12;6.30;;;4.73;;
11616;SDS011;5864;52.998;9.068;2023-01-23T03:12:39;8.70;;;4.53;;
11616;SDS011;5864;52.998;9.068;2023-01-23T03:15:10;7.17;;;3.97;;
11616;SDS011;5864;52.998;9.068;2023-01-23T03:17:38;5.60;;;4.23;;
11616;SDS011;5864;52.998;9.068;2023-01-23T03:20:07;5.90;;;4.00;;
11616;SDS011;5864;52.998;9.068;2023-01-23T03:22:35;5.03;;;4.10;;
11616;SDS011;5864;52.998;9.068;2023-01-23T03:25:03;5.63;;;3.80;;
11616;SDS011;5864;52.998;9.068;2023-01-23T03:27:31;4.97;;;3.60;;
11616;SDS011;5864;52.998;9.068;2023-01-23T03:30:01;4.17;;;3.53;;
11616;SDS011;5864;52.998;9.068;2023-01-23T03:32:40;6.27;;;3.73;;
11616;SDS011;5864;52.998;9.068;2023-01-23T03:35:10;5.23;;;3.67;;
11616;SDS011;5864;52.998;9.068;2023-01-23T03:37:41;5.30;;;4.07;;
11616;SDS011;5864;52.998;9.068;2023-01-23T03:40:09;6.40;;;4.00;;
11616;SDS011;5864;52.998;9.068;2023-01-23T03:42:59;4.20;;;3.80;;
11616;SDS011;5864;52.998;9.068;2023-01-23T03:45:27;5.20;;;4.17;;
11616;SDS011;5864;52.998;9.068;2023-01-23T03:47:54;6.63;;;4.13;;
11616;SDS011;5864;52.998;9.068;2023-01-23T03:50:23;5.90;;;3.80;;
11616;SDS011;5864;52.998;9.068;2023-01-23T03:52:50;8.23;;;3.43;;
11616;SDS011;5864;52.998;9.068;2023-01-23T03:55:18;5.00;;;3.73;;
11616;SDS011;5864;52.998;9.068;2023-01-23T03:57:45;6.17;;;3.93;;
11616;SDS011;5864;52.998;9.068;2023-01-23T04:00:13;6.30;;;4.03;;
11616;SDS011;5864;52.998;9.068;2023-01-23T04:02:42;6.80;;;4.03;;
11616;SDS011;5864;52.998;9.068;2023-01-23T04:05:09;6.53;;;4.30;;
11616;SDS011;5864;52.998;9.068;2023-01-23T04:07:38;5.50;;;4.10;;
11616;SDS011;5864;52.998;9.068;2023-01-23T04:10:06;6.73;;;3.93;;
11616;SDS011;5864;52.998;9.068;2023-01-23T04:12:34;6.13;;;4.03;;
11616;SDS011;5864;52.998;9.068;2023-01-23T04:15:01;8.90;;;4.47;;
11616;SDS011;5864;52.998;9.068;2023-01-23T04:17:29;7.03;;;4.13;;
11616;SDS011;5864;52.998;9.068;2023-01-23T04:19:57;6.90;;;4.30;;
11616;SDS011;5864;52.998;9.068;2023-01-23T04:22:24;5.47;;;3.80;;
11616;SDS011;5864;52.998;9.068;2023-01-23T04:24:53;6.07;;;4.40;;
11616;SDS011;5864;52.998;9.068;2023-01-23T04:27:21;7.00;;;4.30;;
11616;SDS011;5864;52.998;9.068;2023-01-23T04:29:48;4.40;;;3.60;;
11616;SDS011;5864;52.998;9.068;2023-01-23T04:32:16;6.00;;;3.87;;
11616;SDS011;5864;52.998;9.068;2023-01-23T04:34:43;6.30;;;4.00;;
11616;SDS011;5864;52.998;9.068;2023-01-23T04:37:11;7.27;;;4.13;;
11616;SDS011;5864;52.998;9.068;2023-01-23T04:39:38;5.87;;;4.10;;
11616;SDS011;5864;52.998;9.068;2023-01-23T04:42:07;7.67;;;3.97;;
11616;SDS011;5864;52.998;9.068;2023-01-23T04:44:34;7.77;;;4.30;;
11616;SDS011;5864;52.998;9.068;2023-01-23T04:47:02;5.50;;;4.23;;
11616;SDS011;5864;52.998;9.068;2023-01-23T04:49:29;8.13;;;4.30;;
11616;SDS011;5864;52.998;9.068;2023-01-23T04:51:57;5.47;;;3.77;;
11616;SDS011;5864;52.998;9.068;2023-01-23T04:54:24;6.00;;;3.60;;
11616;SDS011;5864;52.998;9.068;2023-01-23T04:56:52;6.37;;;4.10;;
11616;SDS011;5864;52.998;9.068;2023-01-23T04:59:21;5.43;;;4.37;;
11616;SDS011;5864;52.998;9.068;2023-01-23T05:01:48;7.07;;;4.10;;
11616;SDS011;5864;52.998;9.068;2023-01-23T05:04:16;8.00;;;4.60;;
11616;SDS011;5864;52.998;9.068;2023-01-23T05:06:43;9.82;;;5.30;;
11616;SDS011;5864;52.998;9.068;2023-01-23T05:09:11;6.33;;;4.37;;
11616;SDS011;5864;52.998;9.068;2023-01-23T05:11:38;5.27;;;3.77;;
11616;SDS011;5864;52.998;9.068;2023-01-23T05:14:05;6.80;;;4.73;;
11616;SDS011;5864;52.998;9.068;2023-01-23T05:16:34;5.77;;;4.33;;
11616;SDS011;5864;52.998;9.068;2023-01-23T05:19:02;7.70;;;4.20;;
11616;SDS011;5864;52.998;9.068;2023-01-23T05:21:29;8.07;;;4.80;;
11616;SDS011;5864;52.998;9.068;2023-01-23T05:23:57;7.40;;;4.63;;
11616;SDS011;5864;52.998;9.068;2023-01-23T05:26:24;4.60;;;3.97;;
11616;SDS011;5864;52.998;9.068;2023-01-23T05:28:52;5.30;;;4.37;;
11616;SDS011;5864;52.998;9.068;2023-01-23T05:31:19;8.13;;;4.70;;
11616;SDS011;5864;52.998;9.068;2023-01-23T05:33:48;8.00;;;5.07;;
11616;SDS011;5864;52.998;9.068;2023-01-23T05:36:15;6.80;;;4.37;;
11616;SDS011;5864;52.998;9.068;2023-01-23T05:38:43;8.07;;;4.90;;
11616;SDS011;5864;52.998;9.068;2023-01-23T05:41:10;8.80;;;5.57;;
11616;SDS011;5864;52.998;9.068;2023-01-23T05:43:38;7.97;;;5.30;;
11616;SDS011;5864;52.998;9.068;2023-01-23T05:46:05;7.97;;;5.13;;
11616;SDS011;5864;52.998;9.068;2023-01-23T05:48:33;7.43;;;5.30;;
11616;SDS011;5864;52.998;9.068;2023-01-23T05:51:02;6.50;;;4.33;;
11616;SDS011;5864;52.998;9.068;2023-01-23T05:53:30;7.90;;;4.63;;
11616;SDS011;5864;52.998;9.068;2023-01-23T05:55:57;7.30;;;4.70;;
11616;SDS011;5864;52.998;9.068;2023-01-23T05:58:25;6.20;;;4.63;;
11616;SDS011;5864;52.998;9.068;2023-01-23T06:00:52;8.43;;;5.13;;
11616;SDS011;5864;52.998;9.068;2023-01-23T06:03:20;6.50;;;4.73;;
11616;SDS011;5864;52.998;9.068;2023-01-23T06:05:48;6.67;;;4.77;;
11616;SDS011;5864;52.998;9.068;2023-01-23T06:08:16;6.87;;;5.03;;
11616;SDS011;5864;52.998;9.068;2023-01-23T06:10:44;5.80;;;4.40;;
11616;SDS011;5864;52.998;9.068;2023-01-23T06:13:11;5.57;;;4.40;;
11616;SDS011;5864;52.998;9.068;2023-01-23T06:15:39;6.93;;;4.10;;
11616;SDS011;5864;52.998;9.068;2023-01-23T06:18:06;9.83;;;4.30;;
11616;SDS011;5864;52.998;9.068;2023-01-23T06:20:34;8.43;;;4.63;;
11616;SDS011;5864;52.998;9.068;2023-01-23T06:23:02;7.30;;;5.00;;
11616;SDS011;5864;52.998;9.068;2023-01-23T06:25:30;5.77;;;4.37;;
11616;SDS011;5864;52.998;9.068;2023-01-23T06:27:58;8.40;;;4.70;;
11616;SDS011;5864;52.998;9.068;2023-01-23T06:30:25;6.50;;;5.10;;
11616;SDS011;5864;52.998;9.068;2023-01-23T06:32:53;6.20;;;4.67;;
11616;SDS011;5864;52.998;9.068;2023-01-23T06:35:20;9.00;;;5.20;;
11616;SDS011;5864;52.998;9.068;2023-01-23T06:37:48;8.97;;;5.20;;
11616;SDS011;5864;52.998;9.068;2023-01-23T06:40:15;6.50;;;4.90;;
11616;SDS011;5864;52.998;9.068;2023-01-23T06:42:45;5.93;;;5.20;;
11616;SDS011;5864;52.998;9.068;2023-01-23T06:45:13;5.67;;;4.57;;
11616;SDS011;5864;52.998;9.068;2023-01-23T06:47:41;8.63;;;5.53;;
11616;SDS011;5864;52.998;9.068;2023-01-23T06:50:08;9.90;;;5.60;;
11616;SDS011;5864;52.998;9.068;2023-01-23T06:52:36;10.50;;;5.37;;
11616;SDS011;5864;52.998;9.068;2023-01-23T06:55:04;10.57;;;5.33;;
11616;SDS011;5864;52.998;9.068;2023-01-23T06:57:32;6.53;;;4.83;;
11616;SDS011;5864;52.998;9.068;2023-01-23T07:00:02;10.63;;;5.60;;
11616;SDS011;5864;52.998;9.068;2023-01-23T07:02:30;8.23;;;5.00;;
11616;SDS011;5864;52.998;9.068;2023-01-23T07:04:57;6.97;;;5.33;;
11616;SDS011;5864;52.998;9.068;2023-01-23T07:07:25;8.57;;;5.20;;
11616;SDS011;5864;52.998;9.068;2023-01-23T07:09:52;9.07;;;5.67;;
11616;SDS011;5864;52.998;9.068;2023-01-23T07:12:20;7.10;;;5.60;;
11616;SDS011;5864;52.998;9.068;2023-01-23T07:14:47;10.20;;;7.53;;
11616;SDS011;5864;52.998;9.068;2023-01-23T07:17:16;10.63;;;6.97;;
11616;SDS011;5864;52.998;9.068;2023-01-23T07:19:43;11.10;;;7.27;;
11616;SDS011;5864;52.998;9.068;2023-01-23T07:22:11;8.27;;;5.97;;
11616;SDS011;5864;52.998;9.068;2023-01-23T07:24:38;11.63;;;6.13;;
11616;SDS011;5864;52.998;9.068;2023-01-23T07:27:06;8.17;;;6.10;;
11616;SDS011;5864;52.998;9.068;2023-01-23T07:29:33;10.13;;;6.27;;
11616;SDS011;5864;52.998;9.068;2023-01-23T07:32:01;8.10;;;5.70;;
11616;SDS011;5864;52.998;9.068;2023-01-23T07:34:29;8.23;;;5.70;;
11616;SDS011;5864;52.998;9.068;2023-01-23T07:36:57;13.20;;;6.93;;
11616;SDS011;5864;52.998;9.068;2023-01-23T07:39:25;9.67;;;6.73;;
11616;SDS011;5864;52.998;9.068;2023-01-23T07:41:52;8.70;;;6.67;;
11616;SDS011;5864;52.998;9.068;2023-01-23T07:44:20;11.33;;;7.10;;
11616;SDS011;5864;52.998;9.068;2023-01-23T07:46:48;9.90;;;6.80;;
11616;SDS011;5864;52.998;9.068;2023-01-23T07:49:15;10.47;;;7.23;;
11616;SDS011;5864;52.998;9.068;2023-01-23T07:51:44;9.70;;;6.93;;
11616;SDS011;5864;52.998;9.068;2023-01-23T07:54:12;11.57;;;7.13;;
11616;SDS011;5864;52.998;9.068;2023-01-23T07:56:39;10.57;;;7.20;;
11616;SDS011;5864;52.998;9.068;2023-01-23T07:59:06;11.37;;;7.33;;
11616;SDS011;5864;52.998;9.068;2023-01-23T08:01:34;12.30;;;7.30;;
11616;SDS011;5864;52.998;9.068;2023-01-23T08:04:01;10.53;;;7.20;;
11616;SDS011;5864;52.998;9.068;2023-01-23T08:06:29;10.67;;;7.33;;
11616;SDS011;5864;52.998;9.068;2023-01-23T08:08:58;9.73;;;6.87;;
11616;SDS011;5864;52.998;9.068;2023-01-23T08:11:25;8.30;;;6.83;;
11616;SDS011;5864;52.998;9.068;2023-01-23T08:13:53;11.90;;;7.20;;
11616;SDS011;5864;52.998;9.068;2023-01-23T08:16:20;12.23;;;7.83;;
11616;SDS011;5864;52.998;9.068;2023-01-23T08:18:47;12.33;;;8.57;;
11616;SDS011;5864;52.998;9.068;2023-01-23T08:21:15;17.33;;;8.60;;
11616;SDS011;5864;52.998;9.068;2023-01-23T08:23:43;11.13;;;7.53;;
11616;SDS011;5864;52.998;9.068;2023-01-23T08:26:12;13.00;;;7.73;;
11616;SDS011;5864;52.998;9.068;2023-01-23T08:28:42;8.70;;;7.10;;
11616;SDS011;5864;52.998;9.068;2023-01-23T08:31:11;11.63;;;8.30;;
11616;SDS011;5864;52.998;9.068;2023-01-23T08:33:39;9.97;;;7.60;;
11616;SDS011;5864;52.998;9.068;2023-01-23T08:36:07;12.47;;;8.13;;
11616;SDS011;5864;52.998;9.068;2023-01-23T08:38:36;15.97;;;8.67;;
11616;SDS011;5864;52.998;9.068;2023-01-23T08:41:04;17.23;;;9.70;;
11616;SDS011;5864;52.998;9.068;2023-01-23T08:43:36;12.17;;;7.47;;
11616;SDS011;5864;52.998;9.068;2023-01-23T08:46:06;10.47;;;7.20;;
11616;SDS011;5864;52.998;9.068;2023-01-23T08:48:33;12.40;;;7.20;;
11616;SDS011;5864;52.998;9.068;2023-01-23T08:51:02;11.33;;;6.87;;
11616;SDS011;5864;52.998;9.068;2023-01-23T08:53:31;10.60;;;7.43;;
11616;SDS011;5864;52.998;9.068;2023-01-23T08:55:59;12.23;;;7.23;;
11616;SDS011;5864;52.998;9.068;2023-01-23T08:58:28;9.50;;;6.57;;
11616;SDS011;5864;52.998;9.068;2023-01-23T09:00:57;13.67;;;7.47;;
11616;SDS011;5864;52.998;9.068;2023-01-23T09:03:25;12.40;;;6.57;;
11616;SDS011;5864;52.998;9.068;2023-01-23T09:05:53;12.33;;;7.20;;
11616;SDS011;5864;52.998;9.068;2023-01-23T09:08:20;8.00;;;6.57;;
11616;SDS011;5864;52.998;9.068;2023-01-23T09:10:48;8.87;;;6.40;;
11616;SDS011;5864;52.998;9.068;2023-01-23T09:13:15;10.00;;;6.80;;
11616;SDS011;5864;52.998;9.068;2023-01-23T09:15:44;11.07;;;6.57;;
11616;SDS011;5864;52.998;9.068;2023-01-23T09:18:13;8.87;;;6.93;;
11616;SDS011;5864;52.998;9.068;2023-01-23T09:20:42;9.20;;;6.83;;
11616;SDS011;5864;52.998;9.068;2023-01-23T09:23:09;11.43;;;7.73;;
11616;SDS011;5864;52.998;9.068;2023-01-23T09:25:37;10.67;;;7.07;;
11616;SDS011;5864;52.998;9.068;2023-01-23T09:28:04;9.27;;;7.27;;
11616;SDS011;5864;52.998;9.068;2023-01-23T09:30:32;13.03;;;7.33;;
11616;SDS011;5864;52.998;9.068;2023-01-23T09:33:00;11.13;;;7.13;;
11616;SDS011;5864;52.998;9.068;2023-01-23T09:35:28;10.60;;;7.03;;
11616;SDS011;5864;52.998;9.068;2023-01-23T09:37:57;15.13;;;9.40;;
11616;SDS011;5864;52.998;9.068;2023-01-23T09:40:29;12.33;;;7.87;;
11616;SDS011;5864;52.998;9.068;2023-01-23T09:43:01;14.73;;;8.00;;
11616;SDS011;5864;52.998;9.068;2023-01-23T09:45:33;12.50;;;7.57;;
11616;SDS011;5864;52.998;9.068;2023-01-23T09:48:06;12.47;;;7.50;;
11616;SDS011;5864;52.998;9.068;2023-01-23T09:50:47;14.43;;;7.77;;
11616;SDS011;5864;52.998;9.068;2023-01-23T09:53:21;12.03;;;7.87;;
11616;SDS011;5864;52.998;9.068;2023-01-23T09:55:54;12.03;;;7.90;;
11616;SDS011;5864;52.998;9.068;2023-01-23T09:58:27;14.10;;;7.93;;
11616;SDS011;5864;52.998;9.068;2023-01-23T10:01:00;12.27;;;7.40;;
11616;SDS011;5864;52.998;9.068;2023-01-23T10:03:28;13.43;;;7.53;;
11616;SDS011;5864;52.998;9.068;2023-01-23T10:06:06;12.27;;;7.73;;
11616;SDS011;5864;52.998;9.068;2023-01-23T10:08:47;12.80;;;7.50;;
11616;SDS011;5864;52.998;9.068;2023-01-23T10:11:32;17.60;;;8.13;;
11616;SDS011;5864;52.998;9.068;2023-01-23T10:14:12;14.37;;;8.30;;
11616;SDS011;5864;52.998;9.068;2023-01-23T10:16:59;16.10;;;8.13;;
11616;SDS011;5864;52.998;9.068;2023-01-23T10:22:32;20.50;;;8.57;;
11616;SDS011;5864;52.998;9.068;2023-01-23T10:25:08;16.50;;;8.77;;
11616;SDS011;5864;52.998;9.068;2023-01-23T10:27:41;17.83;;;8.47;;
11616;SDS011;5864;52.998;9.068;2023-01-23T10:30:18;17.43;;;8.43;;
11616;SDS011;5864;52.998;9.068;2023-01-23T10:32:50;15.90;;;8.27;;
11616;SDS011;5864;52.998;9.068;2023-01-23T10:35:23;18.67;;;9.27;;
11616;SDS011;5864;52.998;9.068;2023-01-23T10:37:59;15.27;;;8.30;;
11616;SDS011;5864;52.998;9.068;2023-01-23T10:40:27;16.17;;;9.00;;
11616;SDS011;5864;52.998;9.068;2023-01-23T10:43:12;16.60;;;8.57;;
11616;SDS011;5864;52.998;9.068;2023-01-23T10:45:42;15.80;;;8.53;;
11616;SDS011;5864;52.998;9.068;2023-01-23T10:48:26;14.37;;;7.87;;
11616;SDS011;5864;52.998;9.068;2023-01-23T10:50:55;15.17;;;8.70;;
11616;SDS011;5864;52.998;9.068;2023-01-23T10:53:25;18.77;;;10.20;;
11616;SDS011;5864;52.998;9.068;2023-01-23T10:55:54;17.47;;;9.33;;
11616;SDS011;5864;52.998;9.068;2023-01-23T10:58:27;17.57;;;9.63;;
11616;SDS011;5864;52.998;9.068;2023-01-23T11:00:58;14.37;;;8.93;;
11616;SDS011;5864;52.998;9.068;2023-01-23T11:03:28;18.10;;;9.83;;
11616;SDS011;5864;52.998;9.068;2023-01-23T11:06:02;16.93;;;8.93;;
11616;SDS011;5864;52.998;9.068;2023-01-23T11:08:33;16.87;;;9.70;;
11616;SDS011;5864;52.998;9.068;2023-01-23T11:11:18;22.03;;;11.53;;
11616;SDS011;5864;52.998;9.068;2023-01-23T11:13:49;17.20;;;8.73;;
11616;SDS011;5864;52.998;9.068;2023-01-23T11:16:27;17.53;;;9.90;;
11616;SDS011;5864;52.998;9.068;2023-01-23T11:18:56;15.83;;;10.80;;
11616;SDS011;5864;52.998;9.068;2023-01-23T11:21:32;17.27;;;10.37;;
11616;SDS011;5864;52.998;9.068;2023-01-23T11:24:11;15.47;;;9.87;;
11616;SDS011;5864;52.998;9.068;2023-01-23T11:26:45;15.33;;;9.43;;
11616;SDS011;5864;52.998;9.068;2023-01-23T11:29:19;18.40;;;10.33;;
11616;SDS011;5864;52.998;9.068;2023-01-23T11:31:48;14.33;;;9.93;;
11616;SDS011;5864;52.998;9.068;2023-01-23T11:34:20;15.37;;;9.50;;
11616;SDS011;5864;52.998;9.068;2023-01-23T11:36:53;15.63;;;9.93;;
11616;SDS011;5864;52.998;9.068;2023-01-23T11:39:33;17.77;;;10.33;;
11616;SDS011;5864;52.998;9.068;2023-01-23T11:42:07;16.27;;;10.50;;
11616;SDS011;5864;52.998;9.068;2023-01-23T11:44:37;16.07;;;10.37;;
11616;SDS011;5864;52.998;9.068;2023-01-23T11:47:29;15.00;;;10.30;;
11616;SDS011;5864;52.998;9.068;2023-01-23T11:53:10;15.93;;;9.67;;
11616;SDS011;5864;52.998;9.068;2023-01-23T11:55:54;19.20;;;11.40;;
11616;SDS011;5864;52.998;9.068;2023-01-23T11:58:47;17.13;;;11.07;;
11616;SDS011;5864;52.998;9.068;2023-01-23T12:01:35;21.60;;;12.03;;
11616;SDS011;5864;52.998;9.068;2023-01-23T12:04:29;19.27;;;12.27;;
11616;SDS011;5864;52.998;9.068;2023-01-23T12:07:16;18.20;;;11.23;;
11616;SDS011;5864;52.998;9.068;2023-01-23T12:09:51;19.60;;;11.93;;
11616;SDS011;5864;52.998;9.068;2023-01-23T12:12:35;20.37;;;11.80;;
11616;SDS011;5864;52.998;9.068;2023-01-23T12:15:28;22.03;;;12.57;;
11616;SDS011;5864;52.998;9.068;2023-01-23T12:18:03;19.27;;;11.43;;
11616;SDS011;5864;52.998;9.068;2023-01-23T12:20:43;19.73;;;12.47;;
11616;SDS011;5864;52.998;9.068;2023-01-23T12:23:25;17.13;;;11.00;;
11616;SDS011;5864;52.998;9.068;2023-01-23T12:26:10;17.50;;;11.03;;
11616;SDS011;5864;52.998;9.068;2023-01-23T12:28:51;17.43;;;9.93;;
11616;SDS011;5864;52.998;9.068;2023-01-23T12:31:46;16.67;;;9.53;;
11616;SDS011;5864;52.998;9.068;2023-01-23T12:34:26;18.47;;;10.60;;
11616;SDS011;5864;52.998;9.068;2023-01-23T12:37:11;16.87;;;10.43;;
11616;SDS011;5864;52.998;9.068;2023-01-23T12:39:52;18.73;;;9.93;;
11616;SDS011;5864;52.998;9.068;2023-01-23T12:42:26;17.87;;;10.57;;
11616;SDS011;5864;52.998;9.068;2023-01-23T12:44:58;15.57;;;10.60;;
11616;SDS011;5864;52.998;9.068;2023-01-23T12:47:32;16.70;;;9.60;;
11616;SDS011;5864;52.998;9.068;2023-01-23T12:50:07;13.77;;;9.10;;
11616;SDS011;5864;52.998;9.068;2023-01-23T12:52:45;15.87;;;9.30;;
11616;SDS011;5864;52.998;9.068;2023-01-23T12:55:18;15.53;;;9.23;;
11616;SDS011;5864;52.998;9.068;2023-01-23T12:57:50;14.67;;;9.10;;
11616;SDS011;5864;52.998;9.068;2023-01-23T13:00:28;18.27;;;11.67;;
11616;SDS011;5864;52.998;9.068;2023-01-23T13:03:11;18.40;;;11.57;;
11616;SDS011;5864;52.998;9.068;2023-01-23T13:05:50;18.13;;;9.20;;
11616;SDS011;5864;52.998;9.068;2023-01-23T13:08:30;13.23;;;8.80;;
11616;SDS011;5864;52.998;9.068;2023-01-23T13:11:03;15.70;;;9.23;;
11616;SDS011;5864;52.998;9.068;2023-01-23T13:13:52;14.37;;;8.47;;
11616;SDS011;5864;52.998;9.068;2023-01-23T13:16:22;15.70;;;9.13;;
11616;SDS011;5864;52.998;9.068;2023-01-23T13:18:53;17.73;;;11.30;;
11616;SDS011;5864;52.998;9.068;2023-01-23T13:21:40;16.83;;;9.93;;
11616;SDS011;5864;52.998;9.068;2023-01-23T13:24:36;20.53;;;11.03;;
11616;SDS011;5864;52.998;9.068;2023-01-23T13:27:34;20.90;;;12.03;;
11616;SDS011;5864;52.998;9.068;2023-01-23T13:35:57;19.67;;;11.77;;
11616;SDS011;5864;52.998;9.068;2023-01-23T13:38:37;26.77;;;13.60;;
11616;SDS011;5864;52.998;9.068;2023-01-23T13:44:00;23.37;;;13.13;;
11616;SDS011;5864;52.998;9.068;2023-01-23T13:46:36;61.87;;;31.20;;
11616;SDS011;5864;52.998;9.068;2023-01-23T13:49:14;36.87;;;20.37;;
11616;SDS011;5864;52.998;9.068;2023-01-23T13:52:10;16.83;;;10.83;;
11616;SDS011;5864;52.998;9.068;2023-01-23T13:54:54;16.73;;;10.93;;
11616;SDS011;5864;52.998;9.068;2023-01-23T13:57:39;18.73;;;11.93;;
11616;SDS011;5864;52.998;9.068;2023-01-23T14:00:11;17.77;;;12.10;;
11616;SDS011;5864;52.998;9.068;2023-01-23T14:02:45;17.90;;;11.20;;
11616;SDS011;5864;52.998;9.068;2023-01-23T14:05:39;17.50;;;11.17;;
11616;SDS011;5864;52.998;9.068;2023-01-23T14:08:15;21.53;;;13.97;;
11616;SDS011;5864;52.998;9.068;2023-01-23T14:10:45;14.93;;;10.40;;
11616;SDS011;5864;52.998;9.068;2023-01-23T14:13:15;36.17;;;20.70;;
11616;SDS011;5864;52.998;9.068;2023-01-23T14:15:47;17.40;;;11.30;;
11616;SDS011;5864;52.998;9.068;2023-01-23T14:18:36;20.40;;;13.60;;
11616;SDS011;5864;52.998;9.068;2023-01-23T14:21:05;16.73;;;12.47;;
11616;SDS011;5864;52.998;9.068;2023-01-23T14:23:48;16.00;;;9.93;;
11616;SDS011;5864;52.998;9.068;2023-01-23T14:26:18;15.13;;;10.27;;
11616;SDS011;5864;52.998;9.068;2023-01-23T14:28:53;14.50;;;9.73;;
11616;SDS011;5864;52.998;9.068;2023-01-23T14:31:23;15.33;;;11.00;;
11616;SDS011;5864;52.998;9.068;2023-01-23T14:34:00;15.50;;;10.43;;
11616;SDS011;5864;52.998;9.068;2023-01-23T14:36:29;20.77;;;14.57;;
11616;SDS011;5864;52.998;9.068;2023-01-23T14:39:02;16.80;;;11.07;;
11616;SDS011;5864;52.998;9.068;2023-01-23T14:41:31;17.57;;;11.07;;
11616;SDS011;5864;52.998;9.068;2023-01-23T14:44:01;15.30;;;10.83;;
11616;SDS011;5864;52.998;9.068;2023-01-23T14:46:31;19.30;;;10.97;;
11616;SDS011;5864;52.998;9.068;2023-01-23T14:49:02;17.97;;;11.43;;
11616;SDS011;5864;52.998;9.068;2023-01-23T14:51:33;17.53;;;13.10;;
11616;SDS011;5864;52.998;9.068;2023-01-23T14:54:04;18.93;;;12.47;;
11616;SDS011;5864;52.998;9.068;2023-01-23T14:56:41;36.77;;;21.67;;
11616;SDS011;5864;52.998;9.068;2023-01-23T14:59:14;22.50;;;14.40;;
11616;SDS011;5864;52.998;9.068;2023-01-23T15:01:51;15.70;;;11.73;;
11616;SDS011;5864;52.998;9.068;2023-01-23T15:04:20;17.23;;;11.10;;
11616;SDS011;5864;52.998;9.068;2023-01-23T15:06:49;16.23;;;11.13;;
11616;SDS011;5864;52.998;9.068;2023-01-23T15:09:21;26.13;;;17.10;;
11616;SDS011;5864;52.998;9.068;2023-01-23T15:11:53;17.87;;;11.43;;
11616;SDS011;5864;52.998;9.068;2023-01-23T15:14:22;70.67;;;37.87;;
11616;SDS011;5864;52.998;9.068;2023-01-23T15:16:57;36.93;;;21.73;;
11616;SDS011;5864;52.998;9.068;2023-01-23T15:19:27;20.17;;;13.07;;
11616;SDS011;5864;52.998;9.068;2023-01-23T15:22:06;20.40;;;12.80;;
11616;SDS011;5864;52.998;9.068;2023-01-23T15:24:43;17.90;;;11.30;;
11616;SDS011;5864;52.998;9.068;2023-01-23T15:32:54;16.03;;;10.83;;
11616;SDS011;5864;52.998;9.068;2023-01-23T15:35:23;18.83;;;11.70;;
11616;SDS011;5864;52.998;9.068;2023-01-23T15:37:55;18.40;;;11.13;;